sensor_id;sensor_type;location;lat;lon;timestamp;pressure;altitude;pressure_sealevel;temperature;humidity
74893;BME280;63446;56.272;43.922;2023-05-21T00:02:17;101451.72;;;15.72;74.78
74893;BME280;63446;56.272;43.922;2023-05-21T00:04:44;101441.31;;;15.71;74.72
74893;BME280;63446;56.272;43.922;2023-05-21T00:07:10;101447.44;;;15.71;74.72
74893;BME280;63446;56.272;43.922;2023-05-21T00:09:37;101452.28;;;15.69;74.73
74893;BME280;63446;56.272;43.922;2023-05-21T00:12:05;101443.47;;;15.69;74.67
74893;BME280;63446;56.272;43.922;2023-05-21T00:14:31;101437.34;;;15.68;74.92
74893;BME280;63446;56.272;43.922;2023-05-21T00:16:56;101446.94;;;15.69;74.81
74893;BME280;63446;56.272;43.922;2023-05-21T00:19:22;101446.16;;;15.69;75.03
74893;BME280;63446;56.272;43.922;2023-05-21T00:21:48;101449.31;;;15.71;74.99
74893;BME280;63446;56.272;43.922;2023-05-21T00:24:14;101450.91;;;15.72;74.87
74893;BME280;63446;56.272;43.922;2023-05-21T00:26:41;101448.22;;;15.72;74.87
74893;BME280;63446;56.272;43.922;2023-05-21T00:29:07;101457.06;;;15.72;74.76
74893;BME280;63446;56.272;43.922;2023-05-21T00:31:33;101462.09;;;15.74;74.74
74893;BME280;63446;56.272;43.922;2023-05-21T00:34:00;101459.72;;;15.72;74.70
74893;BME280;63446;56.272;43.922;2023-05-21T00:36:27;101457.06;;;15.72;74.94
74893;BME280;63446;56.272;43.922;2023-05-21T00:38:54;101454.66;;;15.71;74.90
74893;BME280;63446;56.272;43.922;2023-05-21T00:41:20;101441.88;;;15.62;74.98
74893;BME280;63446;56.272;43.922;2023-05-21T00:43:47;101454.13;;;15.63;75.27
74893;BME280;63446;56.272;43.922;2023-05-21T00:46:17;101444.28;;;15.59;75.17
74893;BME280;63446;56.272;43.922;2023-05-21T00:48:45;101444.34;;;15.54;75.37
74893;BME280;63446;56.272;43.922;2023-05-21T00:51:14;101445.16;;;15.49;75.36
74893;BME280;63446;56.272;43.922;2023-05-21T00:53:40;101440.91;;;15.43;75.51
74893;BME280;63446;56.272;43.922;2023-05-21T00:56:06;101452.41;;;15.38;75.80
74893;BME280;63446;56.272;43.922;2023-05-21T00:58:33;101455.91;;;15.34;75.87
74893;BME280;63446;56.272;43.922;2023-05-21T01:00:59;101451.66;;;15.28;75.78
74893;BME280;63446;56.272;43.922;2023-05-21T01:03:33;101449.53;;;15.25;76.07
74893;BME280;63446;56.272;43.922;2023-05-21T01:06:04;101449.28;;;15.21;76.11
74893;BME280;63446;56.272;43.922;2023-05-21T01:08:31;101446.91;;;15.20;76.18
74893;BME280;63446;56.272;43.922;2023-05-21T01:11:01;101446.34;;;15.18;76.29
74893;BME280;63446;56.272;43.922;2023-05-21T01:13:28;101449.03;;;15.18;76.29
74893;BME280;63446;56.272;43.922;2023-05-21T01:15:54;101444.50;;;15.18;76.48
74893;BME280;63446;56.272;43.922;2023-05-21T01:18:22;101446.09;;;15.19;76.58
74893;BME280;63446;56.272;43.922;2023-05-21T01:20:48;101437.81;;;15.21;76.34
74893;BME280;63446;56.272;43.922;2023-05-21T01:23:16;101437.56;;;15.22;76.39
74893;BME280;63446;56.272;43.922;2023-05-21T01:25:42;101441.03;;;15.23;76.50
74893;BME280;63446;56.272;43.922;2023-05-21T01:28:11;101431.69;;;15.25;76.42
74893;BME280;63446;56.272;43.922;2023-05-21T01:30:39;101436.22;;;15.25;76.50
74893;BME280;63446;56.272;43.922;2023-05-21T01:33:28;101439.41;;;15.27;76.49
74893;BME280;63446;56.272;43.922;2023-05-21T01:36:06;101433.53;;;15.30;76.27
74893;BME280;63446;56.272;43.922;2023-05-21T01:38:58;101430.88;;;15.30;76.29
74893;BME280;63446;56.272;43.922;2023-05-21T01:41:26;101438.03;;;15.34;76.03
74893;BME280;63446;56.272;43.922;2023-05-21T01:43:55;101439.34;;;15.37;76.00
74893;BME280;63446;56.272;43.922;2023-05-21T01:46:24;101429.47;;;15.43;76.04
74893;BME280;63446;56.272;43.922;2023-05-21T01:48:53;101436.34;;;15.49;76.06
74893;BME280;63446;56.272;43.922;2023-05-21T01:51:20;101444.59;;;15.57;76.24
74893;BME280;63446;56.272;43.922;2023-05-21T01:53:47;101434.44;;;15.59;75.73
74893;BME280;63446;56.272;43.922;2023-05-21T01:56:13;101442.69;;;15.68;75.71
74893;BME280;63446;56.272;43.922;2023-05-21T01:58:40;101441.84;;;15.73;75.76
74893;BME280;63446;56.272;43.922;2023-05-21T02:01:06;101449.81;;;15.78;75.39
74893;BME280;63446;56.272;43.922;2023-05-21T02:03:33;101449.50;;;15.84;75.29
74893;BME280;63446;56.272;43.922;2023-05-21T02:05:59;101454.78;;;15.90;75.28
74893;BME280;63446;56.272;43.922;2023-05-21T02:08:25;101449.41;;;15.95;75.33
74893;BME280;63446;56.272;43.922;2023-05-21T02:10:53;101452.31;;;15.98;75.12
74893;BME280;63446;56.272;43.922;2023-05-21T02:13:19;101448.03;;;16.02;74.75
74893;BME280;63446;56.272;43.922;2023-05-21T02:15:47;101450.13;;;16.05;74.66
74893;BME280;63446;56.272;43.922;2023-05-21T02:18:13;101449.59;;;16.08;74.49
74893;BME280;63446;56.272;43.922;2023-05-21T02:21:03;101453.84;;;16.09;74.50
74893;BME280;63446;56.272;43.922;2023-05-21T02:23:29;101445.84;;;16.09;74.30
74893;BME280;63446;56.272;43.922;2023-05-21T02:25:55;101445.06;;;16.09;74.28
74893;BME280;63446;56.272;43.922;2023-05-21T02:28:21;101457.88;;;16.07;74.53
74893;BME280;63446;56.272;43.922;2023-05-21T02:30:46;101455.47;;;16.05;74.35
74893;BME280;63446;56.272;43.922;2023-05-21T02:33:14;101459.22;;;16.04;74.19
74893;BME280;63446;56.272;43.922;2023-05-21T02:35:40;101461.09;;;16.04;74.38
74893;BME280;63446;56.272;43.922;2023-05-21T02:38:08;101469.34;;;16.07;74.47
74893;BME280;63446;56.272;43.922;2023-05-21T02:40:35;101467.97;;;16.10;74.34
74893;BME280;63446;56.272;43.922;2023-05-21T02:43:01;101465.53;;;16.14;74.26
74893;BME280;63446;56.272;43.922;2023-05-21T02:45:29;101460.19;;;16.19;74.20
74893;BME280;63446;56.272;43.922;2023-05-21T02:47:55;101474.50;;;16.28;73.96
74893;BME280;63446;56.272;43.922;2023-05-21T02:50:22;101470.19;;;16.32;73.90
74893;BME280;63446;56.272;43.922;2023-05-21T02:52:53;101472.72;;;16.47;73.49
74893;BME280;63446;56.272;43.922;2023-05-21T02:55:19;101475.25;;;16.63;73.02
74893;BME280;63446;56.272;43.922;2023-05-21T02:57:46;101474.28;;;16.82;72.49
74893;BME280;63446;56.272;43.922;2023-05-21T03:00:13;101479.41;;;17.03;72.13
74893;BME280;63446;56.272;43.922;2023-05-21T03:02:41;101473.09;;;17.18;71.32
74893;BME280;63446;56.272;43.922;2023-05-21T03:05:07;101473.97;;;17.32;70.96
74893;BME280;63446;56.272;43.922;2023-05-21T03:07:33;101477.56;;;17.46;70.63
74893;BME280;63446;56.272;43.922;2023-05-21T03:10:00;101475.69;;;17.66;70.22
74893;BME280;63446;56.272;43.922;2023-05-21T03:12:25;101481.97;;;17.94;69.20
74893;BME280;63446;56.272;43.922;2023-05-21T03:14:51;101485.38;;;18.18;68.77
74893;BME280;63446;56.272;43.922;2023-05-21T03:17:19;101493.16;;;18.34;68.10
74893;BME280;63446;56.272;43.922;2023-05-21T03:19:45;101487.38;;;18.40;67.78
74893;BME280;63446;56.272;43.922;2023-05-21T03:22:11;101492.38;;;18.47;67.33
74893;BME280;63446;56.272;43.922;2023-05-21T03:24:38;101490.31;;;18.58;66.72
74893;BME280;63446;56.272;43.922;2023-05-21T03:27:05;101487.41;;;18.73;66.32
74893;BME280;63446;56.272;43.922;2023-05-21T03:29:32;101494.06;;;18.89;65.85
74893;BME280;63446;56.272;43.922;2023-05-21T03:32:00;101490.19;;;19.09;65.18
74893;BME280;63446;56.272;43.922;2023-05-21T03:34:26;101503.19;;;19.30;64.48
74893;BME280;63446;56.272;43.922;2023-05-21T03:36:52;101511.09;;;19.48;64.09
74893;BME280;63446;56.272;43.922;2023-05-21T03:39:19;101504.84;;;19.53;63.65
74893;BME280;63446;56.272;43.922;2023-05-21T03:41:46;101503.16;;;19.43;63.30
74893;BME280;63446;56.272;43.922;2023-05-21T03:44:21;101505.34;;;19.27;63.60
74893;BME280;63446;56.272;43.922;2023-05-21T03:47:04;101507.84;;;19.10;63.69
74893;BME280;63446;56.272;43.922;2023-05-21T03:49:33;101512.22;;;18.92;64.00
74893;BME280;63446;56.272;43.922;2023-05-21T03:51:59;101502.25;;;18.79;64.04
74893;BME280;63446;56.272;43.922;2023-05-21T03:54:26;101504.56;;;18.72;64.12
74893;BME280;63446;56.272;43.922;2023-05-21T03:56:55;101507.78;;;18.69;63.94
74893;BME280;63446;56.272;43.922;2023-05-21T03:59:23;101499.38;;;18.75;63.79
74893;BME280;63446;56.272;43.922;2023-05-21T04:01:50;101496.72;;;18.89;63.74
74893;BME280;63446;56.272;43.922;2023-05-21T04:04:17;101504.06;;;19.25;62.70
74893;BME280;63446;56.272;43.922;2023-05-21T04:06:42;101512.44;;;20.10;61.21
74893;BME280;63446;56.272;43.922;2023-05-21T04:09:10;101498.16;;;21.16;59.08
74893;BME280;63446;56.272;43.922;2023-05-21T04:11:37;101508.88;;;22.81;55.38
74893;BME280;63446;56.272;43.922;2023-05-21T04:14:04;101513.13;;;23.71;53.57
74893;BME280;63446;56.272;43.922;2023-05-21T04:16:30;101512.75;;;24.48;51.77
74893;BME280;63446;56.272;43.922;2023-05-21T04:18:59;101514.88;;;25.12;50.33
74893;BME280;63446;56.272;43.922;2023-05-21T04:21:27;101516.63;;;25.57;49.09
74893;BME280;63446;56.272;43.922;2023-05-21T04:23:53;101515.00;;;25.80;48.40
74893;BME280;63446;56.272;43.922;2023-05-21T04:26:42;101524.66;;;26.10;47.74
74893;BME280;63446;56.272;43.922;2023-05-21T04:29:09;101517.25;;;26.82;46.09
74893;BME280;63446;56.272;43.922;2023-05-21T04:31:35;101521.91;;;27.87;44.24
74893;BME280;63446;56.272;43.922;2023-05-21T04:34:03;101524.50;;;28.65;42.76
74893;BME280;63446;56.272;43.922;2023-05-21T04:36:29;101523.44;;;29.53;41.04
74893;BME280;63446;56.272;43.922;2023-05-21T04:38:56;101521.03;;;30.52;39.44
74893;BME280;63446;56.272;43.922;2023-05-21T04:41:22;101524.44;;;30.90;38.71
74893;BME280;63446;56.272;43.922;2023-05-21T04:43:48;101515.72;;;30.70;38.05
74893;BME280;63446;56.272;43.922;2023-05-21T04:46:21;101528.41;;;30.11;38.75
74893;BME280;63446;56.272;43.922;2023-05-21T04:48:51;101521.31;;;29.39;39.68
74893;BME280;63446;56.272;43.922;2023-05-21T04:51:22;101522.94;;;28.64;40.47
74893;BME280;63446;56.272;43.922;2023-05-21T04:53:49;101522.47;;;27.96;41.74
74893;BME280;63446;56.272;43.922;2023-05-21T04:56:15;101526.22;;;27.34;42.41
74893;BME280;63446;56.272;43.922;2023-05-21T04:58:45;101529.94;;;26.62;43.20
74893;BME280;63446;56.272;43.922;2023-05-21T05:01:16;101520.81;;;25.95;44.43
74893;BME280;63446;56.272;43.922;2023-05-21T05:03:41;101520.25;;;25.37;45.60
74893;BME280;63446;56.272;43.922;2023-05-21T05:06:07;101524.41;;;24.97;46.27
74893;BME280;63446;56.272;43.922;2023-05-21T05:08:33;101531.41;;;24.74;46.98
74893;BME280;63446;56.272;43.922;2023-05-21T05:11:00;101520.34;;;24.54;47.11
74893;BME280;63446;56.272;43.922;2023-05-21T05:13:27;101538.00;;;24.52;47.38
74893;BME280;63446;56.272;43.922;2023-05-21T05:15:53;101528.00;;;24.52;47.23
74893;BME280;63446;56.272;43.922;2023-05-21T05:18:19;101526.53;;;24.55;47.18
74893;BME280;63446;56.272;43.922;2023-05-21T05:20:45;101540.00;;;24.43;47.64
74893;BME280;63446;56.272;43.922;2023-05-21T05:23:13;101542.00;;;24.12;47.95
74893;BME280;63446;56.272;43.922;2023-05-21T05:25:39;101531.19;;;23.79;48.58
74893;BME280;63446;56.272;43.922;2023-05-21T05:28:07;101542.22;;;23.45;49.42
74893;BME280;63446;56.272;43.922;2023-05-21T05:30:34;101535.41;;;23.09;50.35
74893;BME280;63446;56.272;43.922;2023-05-21T05:33:11;101527.91;;;22.76;50.96
74893;BME280;63446;56.272;43.922;2023-05-21T05:35:38;101531.47;;;22.51;51.53
74893;BME280;63446;56.272;43.922;2023-05-21T05:38:04;101537.84;;;22.29;52.15
74893;BME280;63446;56.272;43.922;2023-05-21T05:40:30;101544.00;;;22.12;52.32
74893;BME280;63446;56.272;43.922;2023-05-21T05:42:56;101546.69;;;21.94;52.93
74893;BME280;63446;56.272;43.922;2023-05-21T05:45:22;101541.66;;;21.84;53.22
74893;BME280;63446;56.272;43.922;2023-05-21T05:47:49;101549.06;;;21.79;53.48
74893;BME280;63446;56.272;43.922;2023-05-21T05:50:15;101550.50;;;21.76;53.89
74893;BME280;63446;56.272;43.922;2023-05-21T05:52:41;101561.88;;;21.73;54.06
74893;BME280;63446;56.272;43.922;2023-05-21T05:55:07;101549.50;;;21.55;54.03
74893;BME280;63446;56.272;43.922;2023-05-21T05:57:33;101555.81;;;21.41;54.39
74893;BME280;63446;56.272;43.922;2023-05-21T06:00:05;101550.84;;;21.26;54.93
74893;BME280;63446;56.272;43.922;2023-05-21T06:02:39;101555.38;;;21.17;55.15
74893;BME280;63446;56.272;43.922;2023-05-21T06:05:06;101550.47;;;21.10;55.24
74893;BME280;63446;56.272;43.922;2023-05-21T06:07:36;101549.97;;;21.08;55.55
74893;BME280;63446;56.272;43.922;2023-05-21T06:10:06;101551.88;;;21.08;56.04
74893;BME280;63446;56.272;43.922;2023-05-21T06:12:33;101547.91;;;21.05;55.87
74893;BME280;63446;56.272;43.922;2023-05-21T06:15:00;101549.47;;;20.97;56.21
74893;BME280;63446;56.272;43.922;2023-05-21T06:17:26;101550.72;;;20.91;56.30
74893;BME280;63446;56.272;43.922;2023-05-21T06:19:53;101560.97;;;20.89;56.34
74893;BME280;63446;56.272;43.922;2023-05-21T06:22:19;101559.09;;;20.98;56.10
74893;BME280;63446;56.272;43.922;2023-05-21T06:24:46;101555.72;;;21.15;55.85
74893;BME280;63446;56.272;43.922;2023-05-21T06:27:13;101564.13;;;21.31;55.69
74893;BME280;63446;56.272;43.922;2023-05-21T06:29:39;101563.56;;;21.43;55.36
74893;BME280;63446;56.272;43.922;2023-05-21T06:32:09;101556.00;;;21.45;55.33
74893;BME280;63446;56.272;43.922;2023-05-21T06:34:35;101562.00;;;21.42;55.25
74893;BME280;63446;56.272;43.922;2023-05-21T06:37:01;101554.88;;;21.37;55.19
74893;BME280;63446;56.272;43.922;2023-05-21T06:39:27;101557.19;;;21.30;55.15
74893;BME280;63446;56.272;43.922;2023-05-21T06:41:54;101556.22;;;21.26;55.45
74893;BME280;63446;56.272;43.922;2023-05-21T06:44:50;101558.59;;;21.28;55.42
74893;BME280;63446;56.272;43.922;2023-05-21T06:47:35;101566.03;;;21.31;55.17
74893;BME280;63446;56.272;43.922;2023-05-21T06:50:01;101568.13;;;21.34;55.04
74893;BME280;63446;56.272;43.922;2023-05-21T06:52:31;101566.69;;;21.36;54.72
74893;BME280;63446;56.272;43.922;2023-05-21T06:54:58;101572.75;;;21.42;54.60
74893;BME280;63446;56.272;43.922;2023-05-21T06:57:30;101568.34;;;21.55;54.30
74893;BME280;63446;56.272;43.922;2023-05-21T06:59:57;101575.50;;;21.68;53.71
74893;BME280;63446;56.272;43.922;2023-05-21T07:02:23;101574.72;;;21.85;53.35
74893;BME280;63446;56.272;43.922;2023-05-21T07:04:48;101575.22;;;21.96;53.18
74893;BME280;63446;56.272;43.922;2023-05-21T07:07:14;101574.41;;;22.12;52.92
74893;BME280;63446;56.272;43.922;2023-05-21T07:09:41;101585.38;;;22.33;52.60
74893;BME280;63446;56.272;43.922;2023-05-21T07:12:07;101573.75;;;22.59;52.05
74893;BME280;63446;56.272;43.922;2023-05-21T07:14:34;101577.94;;;23.03;51.28
74893;BME280;63446;56.272;43.922;2023-05-21T07:17:00;101575.22;;;23.42;50.60
74893;BME280;63446;56.272;43.922;2023-05-21T07:19:26;101591.09;;;23.73;49.77
74893;BME280;63446;56.272;43.922;2023-05-21T07:21:52;101573.59;;;24.00;49.13
74893;BME280;63446;56.272;43.922;2023-05-21T07:24:18;101581.47;;;24.26;48.75
74893;BME280;63446;56.272;43.922;2023-05-21T07:26:45;101587.88;;;24.54;48.31
74893;BME280;63446;56.272;43.922;2023-05-21T07:29:11;101599.09;;;24.77;47.86
74893;BME280;63446;56.272;43.922;2023-05-21T07:31:38;101607.13;;;24.98;47.48
74893;BME280;63446;56.272;43.922;2023-05-21T07:34:04;101603.19;;;25.08;46.63
74893;BME280;63446;56.272;43.922;2023-05-21T07:36:31;101593.31;;;25.12;46.62
74893;BME280;63446;56.272;43.922;2023-05-21T07:38:58;101604.47;;;25.11;46.58
74893;BME280;63446;56.272;43.922;2023-05-21T07:41:25;101592.53;;;25.12;46.63
74893;BME280;63446;56.272;43.922;2023-05-21T07:43:52;101588.69;;;25.13;46.64
74893;BME280;63446;56.272;43.922;2023-05-21T07:46:18;101605.38;;;25.15;46.62
74893;BME280;63446;56.272;43.922;2023-05-21T07:48:45;101596.47;;;25.14;46.72
74893;BME280;63446;56.272;43.922;2023-05-21T07:51:13;101590.25;;;25.14;46.50
74893;BME280;63446;56.272;43.922;2023-05-21T07:53:39;101596.66;;;25.09;46.81
74893;BME280;63446;56.272;43.922;2023-05-21T07:56:09;101593.50;;;25.07;46.60
74893;BME280;63446;56.272;43.922;2023-05-21T07:58:35;101598.00;;;25.03;46.71
74893;BME280;63446;56.272;43.922;2023-05-21T08:01:01;101603.19;;;24.96;46.73
74893;BME280;63446;56.272;43.922;2023-05-21T08:03:28;101597.75;;;24.83;46.89
74893;BME280;63446;56.272;43.922;2023-05-21T08:05:57;101602.03;;;24.72;47.37
74893;BME280;63446;56.272;43.922;2023-05-21T08:08:23;101599.97;;;24.69;47.76
74893;BME280;63446;56.272;43.922;2023-05-21T08:10:51;101595.25;;;24.66;47.95
74893;BME280;63446;56.272;43.922;2023-05-21T08:13:18;101599.50;;;24.67;47.52
74893;BME280;63446;56.272;43.922;2023-05-21T08:15:47;101597.81;;;24.63;47.38
74893;BME280;63446;56.272;43.922;2023-05-21T08:18:13;101598.59;;;24.63;46.98
74893;BME280;63446;56.272;43.922;2023-05-21T08:20:42;101613.34;;;24.53;46.77
74893;BME280;63446;56.272;43.922;2023-05-21T08:23:08;101600.84;;;24.49;46.85
74893;BME280;63446;56.272;43.922;2023-05-21T08:25:40;101613.09;;;24.46;46.95
74893;BME280;63446;56.272;43.922;2023-05-21T08:28:05;101611.38;;;24.42;46.95
74893;BME280;63446;56.272;43.922;2023-05-21T08:30:33;101600.41;;;24.38;46.89
74893;BME280;63446;56.272;43.922;2023-05-21T08:33:01;101607.34;;;24.48;47.06
74893;BME280;63446;56.272;43.922;2023-05-21T08:35:29;101598.16;;;24.61;47.15
74893;BME280;63446;56.272;43.922;2023-05-21T08:38:06;101618.56;;;24.71;46.96
74893;BME280;63446;56.272;43.922;2023-05-21T08:40:45;101623.31;;;24.74;46.95
74893;BME280;63446;56.272;43.922;2023-05-21T08:43:12;101613.75;;;24.76;46.95
74893;BME280;63446;56.272;43.922;2023-05-21T08:45:46;101616.69;;;24.83;46.67
74893;BME280;63446;56.272;43.922;2023-05-21T08:48:15;101621.66;;;24.94;46.59
74893;BME280;63446;56.272;43.922;2023-05-21T08:50:44;101625.72;;;25.00;46.29
74893;BME280;63446;56.272;43.922;2023-05-21T08:53:15;101625.38;;;25.01;46.19
74893;BME280;63446;56.272;43.922;2023-05-21T08:55:42;101627.06;;;25.06;46.01
74893;BME280;63446;56.272;43.922;2023-05-21T08:58:09;101623.69;;;25.09;45.65
74893;BME280;63446;56.272;43.922;2023-05-21T09:00:36;101628.94;;;25.14;45.70
74893;BME280;63446;56.272;43.922;2023-05-21T09:03:03;101622.63;;;25.22;45.28
74893;BME280;63446;56.272;43.922;2023-05-21T09:05:39;101629.72;;;25.27;45.17
74893;BME280;63446;56.272;43.922;2023-05-21T09:08:13;101626.56;;;25.25;45.06
74893;BME280;63446;56.272;43.922;2023-05-21T09:10:52;101633.88;;;25.12;45.14
74893;BME280;63446;56.272;43.922;2023-05-21T09:13:24;101627.53;;;24.96;45.38
74893;BME280;63446;56.272;43.922;2023-05-21T09:15:51;101639.09;;;24.84;45.15
74893;BME280;63446;56.272;43.922;2023-05-21T09:18:17;101631.09;;;24.75;45.07
74893;BME280;63446;56.272;43.922;2023-05-21T09:21:29;101634.00;;;24.82;45.23
74893;BME280;63446;56.272;43.922;2023-05-21T09:23:59;101625.59;;;24.96;45.10
74893;BME280;63446;56.272;43.922;2023-05-21T09:26:27;101637.16;;;25.18;44.76
74893;BME280;63446;56.272;43.922;2023-05-21T09:28:59;101626.22;;;25.39;44.12
74893;BME280;63446;56.272;43.922;2023-05-21T09:31:26;101625.66;;;25.57;43.77
74893;BME280;63446;56.272;43.922;2023-05-21T09:33:53;101628.91;;;25.75;43.23
74893;BME280;63446;56.272;43.922;2023-05-21T09:36:21;101639.97;;;25.83;42.60
74893;BME280;63446;56.272;43.922;2023-05-21T09:38:49;101630.03;;;25.87;41.91
74893;BME280;63446;56.272;43.922;2023-05-21T09:41:16;101623.25;;;25.93;41.73
74893;BME280;63446;56.272;43.922;2023-05-21T09:43:43;101619.53;;;25.97;41.64
74893;BME280;63446;56.272;43.922;2023-05-21T09:46:10;101612.88;;;25.95;41.34
74893;BME280;63446;56.272;43.922;2023-05-21T09:48:41;101620.69;;;25.84;41.78
74893;BME280;63446;56.272;43.922;2023-05-21T09:51:18;101624.44;;;25.79;41.91
74893;BME280;63446;56.272;43.922;2023-05-21T09:53:53;101615.16;;;25.80;41.70
74893;BME280;63446;56.272;43.922;2023-05-21T09:56:21;101617.19;;;25.84;41.85
74893;BME280;63446;56.272;43.922;2023-05-21T09:58:50;101611.66;;;25.92;41.36
74893;BME280;63446;56.272;43.922;2023-05-21T10:01:18;101615.44;;;26.03;41.37
74893;BME280;63446;56.272;43.922;2023-05-21T10:03:48;101623.44;;;26.12;40.90
74893;BME280;63446;56.272;43.922;2023-05-21T10:06:17;101629.25;;;26.26;40.90
74893;BME280;63446;56.272;43.922;2023-05-21T10:08:47;101628.41;;;26.38;40.25
74893;BME280;63446;56.272;43.922;2023-05-21T10:11:14;101623.44;;;26.40;39.70
74893;BME280;63446;56.272;43.922;2023-05-21T10:13:44;101635.41;;;26.39;39.86
74893;BME280;63446;56.272;43.922;2023-05-21T10:16:14;101634.16;;;26.37;39.81
74893;BME280;63446;56.272;43.922;2023-05-21T10:18:41;101629.47;;;26.34;39.55
74893;BME280;63446;56.272;43.922;2023-05-21T10:21:07;101623.47;;;26.28;39.57
74893;BME280;63446;56.272;43.922;2023-05-21T10:23:35;101620.66;;;26.24;39.80
74893;BME280;63446;56.272;43.922;2023-05-21T10:26:02;101630.28;;;26.22;40.16
74893;BME280;63446;56.272;43.922;2023-05-21T10:28:29;101624.66;;;26.15;40.28
74893;BME280;63446;56.272;43.922;2023-05-21T10:30:56;101633.28;;;26.04;40.81
74893;BME280;63446;56.272;43.922;2023-05-21T10:33:22;101637.94;;;25.92;41.50
74893;BME280;63446;56.272;43.922;2023-05-21T10:35:50;101631.41;;;25.80;41.91
74893;BME280;63446;56.272;43.922;2023-05-21T10:38:18;101630.94;;;25.66;42.02
74893;BME280;63446;56.272;43.922;2023-05-21T10:40:46;101623.09;;;25.49;42.25
74893;BME280;63446;56.272;43.922;2023-05-21T10:57:21;101642.81;;;24.79;43.55
74893;BME280;63446;56.272;43.922;2023-05-21T10:59:52;101632.66;;;24.76;43.83
74893;BME280;63446;56.272;43.922;2023-05-21T11:02:18;101627.38;;;24.80;43.83
74893;BME280;63446;56.272;43.922;2023-05-21T11:04:47;101632.22;;;24.87;43.40
74893;BME280;63446;56.272;43.922;2023-05-21T11:07:14;101649.56;;;24.85;43.06
74893;BME280;63446;56.272;43.922;2023-05-21T11:09:49;101638.50;;;24.78;43.02
74893;BME280;63446;56.272;43.922;2023-05-21T11:12:15;101631.16;;;24.67;43.36
74893;BME280;63446;56.272;43.922;2023-05-21T11:14:56;101629.47;;;24.62;43.49
74893;BME280;63446;56.272;43.922;2023-05-21T11:17:40;101627.41;;;24.59;43.44
74893;BME280;63446;56.272;43.922;2023-05-21T11:20:11;101624.94;;;24.54;43.36
74893;BME280;63446;56.272;43.922;2023-05-21T11:22:44;101621.53;;;24.45;43.70
74893;BME280;63446;56.272;43.922;2023-05-21T11:25:11;101622.22;;;24.54;43.32
74893;BME280;63446;56.272;43.922;2023-05-21T11:27:40;101616.59;;;24.59;43.52
74893;BME280;63446;56.272;43.922;2023-05-21T11:32:38;101615.97;;;24.74;42.87
74893;BME280;63446;56.272;43.922;2023-05-21T11:35:05;101617.00;;;24.82;42.68
74893;BME280;63446;56.272;43.922;2023-05-21T11:37:33;101611.06;;;24.89;42.99
74893;BME280;63446;56.272;43.922;2023-05-21T11:40:16;101613.00;;;25.00;42.68
74893;BME280;63446;56.272;43.922;2023-05-21T11:42:48;101609.53;;;25.12;42.66
74893;BME280;63446;56.272;43.922;2023-05-21T11:45:16;101608.75;;;25.24;41.58
74893;BME280;63446;56.272;43.922;2023-05-21T11:47:43;101601.53;;;25.40;41.39
74893;BME280;63446;56.272;43.922;2023-05-21T11:50:12;101604.03;;;25.45;41.14
74893;BME280;63446;56.272;43.922;2023-05-21T11:52:39;101604.47;;;25.47;40.62
74893;BME280;63446;56.272;43.922;2023-05-21T11:55:07;101595.56;;;25.47;40.13
74893;BME280;63446;56.272;43.922;2023-05-21T11:57:33;101588.56;;;25.46;40.13
74893;BME280;63446;56.272;43.922;2023-05-21T12:00:01;101596.03;;;25.49;40.52
74893;BME280;63446;56.272;43.922;2023-05-21T12:02:32;101592.28;;;25.53;39.98
74893;BME280;63446;56.272;43.922;2023-05-21T12:04:58;101593.72;;;25.63;40.25
74893;BME280;63446;56.272;43.922;2023-05-21T12:07:28;101598.56;;;25.70;39.17
74893;BME280;63446;56.272;43.922;2023-05-21T12:09:54;101588.97;;;25.72;38.89
74893;BME280;63446;56.272;43.922;2023-05-21T12:12:22;101600.13;;;25.71;38.84
74893;BME280;63446;56.272;43.922;2023-05-21T12:14:50;101591.03;;;25.63;38.96
74893;BME280;63446;56.272;43.922;2023-05-21T12:17:20;101594.53;;;25.51;39.39
74893;BME280;63446;56.272;43.922;2023-05-21T12:19:48;101598.94;;;25.44;39.51
74893;BME280;63446;56.272;43.922;2023-05-21T12:22:14;101598.50;;;25.42;39.23
74893;BME280;63446;56.272;43.922;2023-05-21T12:24:41;101589.91;;;25.40;39.42
74893;BME280;63446;56.272;43.922;2023-05-21T12:27:09;101593.88;;;25.42;39.62
74893;BME280;63446;56.272;43.922;2023-05-21T12:29:43;101596.22;;;25.44;39.82
74893;BME280;63446;56.272;43.922;2023-05-21T12:32:11;101600.19;;;25.34;39.87
74893;BME280;63446;56.272;43.922;2023-05-21T12:34:47;101596.91;;;25.16;40.25
74893;BME280;63446;56.272;43.922;2023-05-21T12:37:27;101601.28;;;24.96;40.42
74893;BME280;63446;56.272;43.922;2023-05-21T12:39:59;101591.09;;;24.81;40.87
74893;BME280;63446;56.272;43.922;2023-05-21T12:42:31;101584.66;;;24.61;41.17
74893;BME280;63446;56.272;43.922;2023-05-21T12:45:05;101592.13;;;24.43;41.48
74893;BME280;63446;56.272;43.922;2023-05-21T12:47:32;101596.69;;;24.30;41.71
74893;BME280;63446;56.272;43.922;2023-05-21T12:50:07;101592.81;;;24.19;42.08
74893;BME280;63446;56.272;43.922;2023-05-21T12:52:42;101576.06;;;24.05;42.27
74893;BME280;63446;56.272;43.922;2023-05-21T12:55:12;101580.91;;;23.99;42.38
74893;BME280;63446;56.272;43.922;2023-05-21T12:57:38;101575.53;;;23.91;42.50
74893;BME280;63446;56.272;43.922;2023-05-21T13:00:05;101590.50;;;23.88;42.36
74893;BME280;63446;56.272;43.922;2023-05-21T13:02:39;101581.75;;;23.91;42.35
74893;BME280;63446;56.272;43.922;2023-05-21T13:05:10;101574.50;;;24.04;42.39